createdAt,value
2023-03-21T00:01:51.709Z,100672.38
2023-03-21T00:04:20.072Z,100677.37
2023-03-21T00:06:49.455Z,100676.00
2023-03-21T00:09:20.887Z,100673.12
2023-03-21T00:11:49.525Z,100671.09
2023-03-21T00:14:18.928Z,100675.28
2023-03-21T00:16:50.635Z,100680.59
2023-03-21T00:19:20.853Z,100683.16
2023-03-21T00:22:08.751Z,100692.62
2023-03-21T00:24:37.883Z,100684.63
2023-03-21T00:29:56.512Z,100677.72
2023-03-21T00:32:25.885Z,100683.56
2023-03-21T00:35:11.943Z,100681.22
2023-03-21T00:37:44.190Z,100676.44
2023-03-21T00:40:25.319Z,100668.09
2023-03-21T00:42:54.751Z,100669.69
2023-03-21T00:45:22.996Z,100674.63
2023-03-21T00:47:51.288Z,100668.31
2023-03-21T00:50:20.132Z,100666.09
2023-03-21T00:52:50.534Z,100653.72
2023-03-21T00:55:21.164Z,100659.38
2023-03-21T00:57:56.201Z,100659.03
2023-03-21T01:00:29.534Z,100653.50
2023-03-21T01:03:04.379Z,100656.38
2023-03-21T01:05:58.358Z,100651.03
2023-03-21T01:08:33.201Z,100652.84
2023-03-21T01:11:13.508Z,100643.16
2023-03-21T01:13:52.820Z,100644.84
2023-03-21T01:16:25.416Z,100650.31
2023-03-21T01:18:54.177Z,100646.91
2023-03-21T01:21:22.281Z,100644.97
2023-03-21T01:23:51.666Z,100647.53
2023-03-21T01:26:19.930Z,100642.19
2023-03-21T01:28:48.129Z,100642.19
2023-03-21T01:31:17.976Z,100642.31
2023-03-21T01:33:46.683Z,100649.34
2023-03-21T01:36:21.828Z,100650.22
2023-03-21T01:38:53.249Z,100646.69
2023-03-21T01:41:36.767Z,100642.22
2023-03-21T01:44:19.524Z,100644.03
2023-03-21T01:47:03.558Z,100639.66
2023-03-21T01:49:41.738Z,100644.13
2023-03-21T01:52:21.106Z,100634.66
2023-03-21T01:54:58.360Z,100632.19
2023-03-21T01:57:40.383Z,100628.78
2023-03-21T02:00:13.580Z,100628.16
2023-03-21T02:02:52.587Z,100630.94
2023-03-21T02:05:28.816Z,100620.28
2023-03-21T02:07:57.031Z,100623.78
2023-03-21T02:10:28.180Z,100619.31
2023-03-21T02:13:08.096Z,100622.06
2023-03-21T02:15:39.035Z,100618.53
2023-03-21T02:18:15.435Z,100616.00
2023-03-21T02:21:05.623Z,100622.28
2023-03-21T02:24:03.181Z,100616.22
2023-03-21T02:27:05.044Z,100612.69
2023-03-21T02:30:02.426Z,100607.13
2023-03-21T02:32:42.017Z,100606.19
2023-03-21T02:35:29.579Z,100607.13
2023-03-21T02:38:02.584Z,100608.84
2023-03-21T02:40:36.118Z,100604.59
2023-03-21T02:43:22.163Z,100594.66
2023-03-21T02:45:55.030Z,100603.50
2023-03-21T02:48:35.268Z,100605.34
2023-03-21T02:51:10.461Z,100604.59
2023-03-21T02:53:43.555Z,100601.06
2023-03-21T02:56:12.037Z,100603.63
2023-03-21T02:58:42.681Z,100607.13
2023-03-21T03:01:11.567Z,100603.84
2023-03-21T03:03:40.002Z,100605.78
2023-03-21T03:06:17.094Z,100598.81
2023-03-21T03:09:03.243Z,100608.62
2023-03-21T03:11:35.740Z,100602.25
2023-03-21T03:14:49.924Z,100599.59
2023-03-21T03:17:24.594Z,100602.87
2023-03-21T03:20:16.629Z,100595.22
2023-03-21T03:22:55.905Z,100598.94
2023-03-21T03:25:42.217Z,100593.19
2023-03-21T03:28:14.937Z,100598.53
2023-03-21T03:30:54.257Z,100592.25
2023-03-21T03:33:30.939Z,100592.34
2023-03-21T03:36:06.444Z,100591.28
2023-03-21T03:38:37.948Z,100591.28
2023-03-21T03:41:11.759Z,100589.56
2023-03-21T03:43:48.560Z,100582.56
2023-03-21T03:46:21.098Z,100584.44
2023-03-21T03:48:52.310Z,100588.91
2023-03-21T03:51:25.486Z,100586.91
2023-03-21T03:53:58.276Z,100583.28
2023-03-21T03:56:29.717Z,100583.28
2023-03-21T03:58:58.678Z,100584.03
2023-03-21T04:01:27.846Z,100583.19
2023-03-21T04:04:10.586Z,100583.81
2023-03-21T04:06:41.461Z,100574.56
2023-03-21T04:09:20.686Z,100577.84
2023-03-21T04:11:51.502Z,100574.41
2023-03-21T04:14:19.780Z,100583.94
2023-03-21T04:16:47.797Z,100579.66
2023-03-21T04:19:16.616Z,100575.09
2023-03-21T04:21:44.828Z,100576.66
2023-03-21T04:24:13.934Z,100574.44
2023-03-21T04:26:43.077Z,100578.81
2023-03-21T04:29:14.524Z,100577.97
2023-03-21T04:31:43.716Z,100580.19
2023-03-21T04:34:14.402Z,100572.72
2023-03-21T04:36:45.751Z,100575.94
2023-03-21T04:39:14.442Z,100570.38
2023-03-21T04:41:43.647Z,100570.16
2023-03-21T04:44:13.579Z,100576.16
2023-03-21T04:46:43.609Z,100567.41
2023-03-21T04:49:11.838Z,100564.62
2023-03-21T04:51:40.482Z,100568.03
2023-03-21T04:54:12.292Z,100572.63
2023-03-21T04:56:41.075Z,100580.81
2023-03-21T04:59:13.034Z,100568.28
2023-03-21T05:01:43.735Z,100573.38
2023-03-21T05:04:15.755Z,100573.91
2023-03-21T05:06:44.891Z,100577.44
2023-03-21T05:09:14.565Z,100574.00
2023-03-21T05:11:43.175Z,100568.38
2023-03-21T05:14:14.819Z,100577.53
2023-03-21T05:16:48.515Z,100568.38
2023-03-21T05:19:18.594Z,100577.31
2023-03-21T05:21:47.496Z,100572.09
2023-03-21T05:24:19.356Z,100574.84
2023-03-21T05:26:52.260Z,100567.84
2023-03-21T05:29:21.722Z,100570.38
2023-03-21T05:31:51.620Z,100572.09
2023-03-21T05:34:21.689Z,100569.53
2023-03-21T05:36:49.906Z,100569.41
2023-03-21T05:39:18.363Z,100571.22
2023-03-21T05:41:46.484Z,100566.34
2023-03-21T05:44:15.545Z,100575.06
2023-03-21T05:46:44.072Z,100568.59
2023-03-21T05:49:12.919Z,100563.16
2023-03-21T05:51:44.968Z,100559.53
2023-03-21T05:54:16.651Z,100561.22
2023-03-21T05:56:45.307Z,100567.19
2023-03-21T05:59:13.823Z,100573.16
2023-03-21T06:01:42.133Z,100555.97
2023-03-21T06:04:11.677Z,100568.13
2023-03-21T06:06:41.871Z,100564.19
2023-03-21T06:09:11.340Z,100565.87
2023-03-21T06:11:47.499Z,100563.94
2023-03-21T06:14:16.850Z,100573.56
2023-03-21T06:16:45.591Z,100573.44
2023-03-21T06:19:14.285Z,100574.19
2023-03-21T06:21:43.577Z,100572.03
2023-03-21T06:24:14.506Z,100573.13
2023-03-21T06:26:43.430Z,100562.56
2023-03-21T06:29:11.803Z,100572.03
2023-03-21T06:31:42.860Z,100562.63
2023-03-21T06:34:11.692Z,100567.13
2023-03-21T06:36:39.964Z,100571.06
2023-03-21T06:39:08.776Z,100575.44
2023-03-21T06:41:39.907Z,100570.72
2023-03-21T06:44:08.705Z,100576.22
2023-03-21T06:46:37.343Z,100573.25
2023-03-21T06:49:05.597Z,100581.62
2023-03-21T06:51:34.089Z,100579.50
2023-03-21T06:54:02.703Z,100570.41
2023-03-21T06:56:30.769Z,100579.37
2023-03-21T06:59:00.586Z,100571.69
2023-03-21T07:01:30.604Z,100572.44
2023-03-21T07:03:59.914Z,100562.50
2023-03-21T07:06:28.732Z,100560.56
2023-03-21T07:08:57.322Z,100571.03
2023-03-21T07:11:26.220Z,100568.22
2023-03-21T07:13:54.498Z,100564.75
2023-03-21T07:16:26.181Z,100566.47
2023-03-21T07:18:54.569Z,100570.38
2023-03-21T07:21:22.657Z,100571.59
2023-03-21T07:23:51.244Z,100571.28
2023-03-21T07:26:19.641Z,100568.25
2023-03-21T07:28:47.626Z,100576.53
2023-03-21T07:31:17.740Z,100567.53
2023-03-21T07:33:47.276Z,100573.72
2023-03-21T07:36:16.916Z,100575.69
2023-03-21T07:38:47.008Z,100572.31
2023-03-21T07:43:44.750Z,100572.03
2023-03-21T07:46:13.001Z,100568.66
2023-03-21T07:48:41.006Z,100574.97
2023-03-21T07:51:10.410Z,100571.19
2023-03-21T07:53:39.246Z,100569.16
2023-03-21T07:56:07.596Z,100566.56
2023-03-21T07:58:35.706Z,100568.09
2023-03-21T08:01:03.876Z,100571.28
2023-03-21T08:03:33.402Z,100566.91
2023-03-21T08:06:01.990Z,100563.13
2023-03-21T08:08:31.701Z,100569.03
2023-03-21T08:11:00.104Z,100567.78
2023-03-21T08:13:28.141Z,100566.25
2023-03-21T08:15:56.143Z,100570.62
2023-03-21T08:18:24.331Z,100571.22
2023-03-21T08:20:54.014Z,100570.44
2023-03-21T08:23:22.466Z,100571.22
2023-03-21T08:25:54.634Z,100575.22
2023-03-21T08:28:24.275Z,100581.62
2023-03-21T08:30:52.558Z,100574.09
2023-03-21T08:33:21.464Z,100571.22
2023-03-21T08:35:49.504Z,100580.59
2023-03-21T08:38:17.930Z,100577.06
2023-03-21T08:40:45.831Z,100575.47
2023-03-21T08:43:15.314Z,100581.25
2023-03-21T08:45:43.615Z,100583.13
2023-03-21T08:48:11.602Z,100585.25
2023-03-21T08:50:40.197Z,100576.37
2023-03-21T08:53:08.775Z,100575.94
2023-03-21T08:55:37.060Z,100576.06
2023-03-21T08:58:05.104Z,100566.41
2023-03-21T09:00:34.683Z,100581.22
2023-03-21T09:03:04.983Z,100576.72
2023-03-21T09:05:33.742Z,100573.56
2023-03-21T09:08:03.346Z,100575.13
2023-03-21T09:10:31.582Z,100570.19
2023-03-21T09:12:59.905Z,100568.00
2023-03-21T09:15:28.967Z,100571.09
2023-03-21T09:18:13.203Z,100573.50
2023-03-21T09:20:43.065Z,100570.72
2023-03-21T09:23:12.143Z,100569.19
2023-03-21T09:25:40.797Z,100556.47
2023-03-21T09:28:09.781Z,100553.94
2023-03-21T09:30:38.216Z,100555.47
2023-03-21T09:33:09.777Z,100555.34
2023-03-21T09:35:39.096Z,100555.66
2023-03-21T09:38:07.390Z,100554.06
2023-03-21T09:40:50.163Z,100551.94
2023-03-21T09:43:33.101Z,100545.41
2023-03-21T09:46:07.234Z,100543.25
2023-03-21T09:48:54.329Z,100538.50
2023-03-21T09:51:27.204Z,100534.22
2023-03-21T09:53:58.562Z,100529.84
2023-03-21T09:56:26.993Z,100532.37
2023-03-21T09:58:59.369Z,100536.44
2023-03-21T10:01:29.883Z,100541.53
2023-03-21T10:04:03.385Z,100531.44
2023-03-21T10:06:33.638Z,100525.13
2023-03-21T10:09:06.585Z,100531.09
2023-03-21T10:11:43.321Z,100530.38
2023-03-21T10:14:19.567Z,100527.53
2023-03-21T10:16:50.455Z,100519.28
2023-03-21T10:19:21.578Z,100518.44
2023-03-21T10:22:00.627Z,100520.72
2023-03-21T10:24:32.611Z,100513.41
2023-03-21T10:27:02.444Z,100504.31
2023-03-21T10:29:37.035Z,100500.72
2023-03-21T10:32:05.355Z,100503.03
2023-03-21T10:34:39.371Z,100491.13
2023-03-21T10:37:08.045Z,100489.94
2023-03-21T10:39:39.422Z,100487.50
2023-03-21T10:42:08.408Z,100489.91
2023-03-21T10:44:37.345Z,100487.59
2023-03-21T10:47:07.634Z,100483.56
2023-03-21T10:50:05.121Z,100483.06
2023-03-21T10:52:29.800Z,100491.13
2023-03-21T10:55:09.865Z,100485.28
2023-03-21T10:57:38.782Z,100489.69
2023-03-21T11:00:20.787Z,100480.84
2023-03-21T11:02:51.208Z,100481.91
2023-03-21T11:05:25.473Z,100482.84
2023-03-21T11:08:00.078Z,100476.12
2023-03-21T11:10:31.164Z,100472.28
2023-03-21T11:13:04.645Z,100473.50
2023-03-21T11:15:34.773Z,100479.66
2023-03-21T11:18:15.533Z,100475.81
2023-03-21T11:20:50.312Z,100462.34
2023-03-21T11:23:20.804Z,100463.03
2023-03-21T11:25:51.302Z,100455.09
2023-03-21T11:28:24.292Z,100451.41
2023-03-21T11:30:54.780Z,100454.31
2023-03-21T11:33:28.199Z,100451.94
2023-03-21T11:36:02.822Z,100445.19
2023-03-21T11:38:37.694Z,100446.34
2023-03-21T11:41:07.294Z,100450.91
2023-03-21T11:43:37.541Z,100438.72
2023-03-21T11:46:09.812Z,100439.75
2023-03-21T11:48:42.252Z,100441.06
2023-03-21T11:51:22.148Z,100437.81
2023-03-21T11:53:57.189Z,100437.50
2023-03-21T11:56:28.957Z,100425.16
2023-03-21T11:59:08.710Z,100420.13
2023-03-21T12:01:46.528Z,100424.81
2023-03-21T12:04:22.422Z,100416.69
2023-03-21T12:07:01.509Z,100410.88
2023-03-21T12:09:42.086Z,100413.75
2023-03-21T12:12:38.275Z,100413.75
2023-03-21T12:15:16.035Z,100404.00
2023-03-21T12:17:56.117Z,100396.50
2023-03-21T12:20:38.709Z,100392.25
2023-03-21T12:23:42.238Z,100400.72
2023-03-21T12:26:21.062Z,100389.13
2023-03-21T12:29:05.251Z,100388.44
2023-03-21T12:31:43.793Z,100374.19
2023-03-21T12:34:26.011Z,100377.16
2023-03-21T12:37:09.087Z,100379.56
2023-03-21T12:39:40.809Z,100369.75
2023-03-21T12:42:36.020Z,100377.56
2023-03-21T12:45:15.385Z,100373.47
2023-03-21T12:47:49.742Z,100367.41
2023-03-21T12:50:24.205Z,100360.13
2023-03-21T12:52:57.190Z,100361.66
2023-03-21T12:55:29.260Z,100361.63
2023-03-21T12:58:04.926Z,100354.22
2023-03-21T13:00:39.305Z,100364.59
2023-03-21T13:03:14.910Z,100358.53
2023-03-21T13:05:47.615Z,100351.38
2023-03-21T13:08:22.161Z,100351.94
2023-03-21T13:10:51.542Z,100348.22
2023-03-21T13:13:27.229Z,100344.84
2023-03-21T13:16:03.828Z,100341.78
2023-03-21T13:18:40.775Z,100337.78
2023-03-21T13:21:16.625Z,100331.34
2023-03-21T13:24:00.461Z,100331.34
2023-03-21T13:26:39.540Z,100325.28
2023-03-21T13:29:16.069Z,100321.91
2023-03-21T13:31:52.537Z,100320.72
2023-03-21T13:34:23.408Z,100313.75
2023-03-21T13:36:53.483Z,100312.16
2023-03-21T13:39:27.366Z,100309.16
2023-03-21T13:41:56.756Z,100316.00
2023-03-21T13:44:33.115Z,100312.31
2023-03-21T13:47:03.542Z,100305.13
2023-03-21T13:49:35.441Z,100305.44
2023-03-21T13:52:22.334Z,100296.38
2023-03-21T13:54:53.831Z,100302.03
2023-03-21T13:57:38.348Z,100302.91
2023-03-21T14:00:20.873Z,100294.50
2023-03-21T14:02:58.335Z,100304.06
2023-03-21T14:05:28.677Z,100297.69
2023-03-21T14:08:12.564Z,100293.38
2023-03-21T14:10:45.779Z,100291.47
2023-03-21T14:13:20.085Z,100292.56
2023-03-21T14:15:55.993Z,100294.37
2023-03-21T14:18:47.836Z,100285.91
2023-03-21T14:21:23.717Z,100274.22
2023-03-21T14:24:00.873Z,100269.12
2023-03-21T14:26:31.515Z,100272.19
2023-03-21T14:29:05.217Z,100261.84
2023-03-21T14:31:33.989Z,100262.72
2023-03-21T14:34:03.426Z,100257.78
2023-03-21T14:36:35.235Z,100256.94
2023-03-21T14:39:07.382Z,100253.34
2023-03-21T14:41:45.487Z,100250.91
2023-03-21T14:44:22.385Z,100249.44
2023-03-21T14:46:50.495Z,100247.37
2023-03-21T14:49:23.356Z,100246.28
2023-03-21T14:51:52.969Z,100245.00
2023-03-21T14:54:21.525Z,100239.12
2023-03-21T14:56:52.595Z,100236.16
2023-03-21T14:59:26.723Z,100234.66
2023-03-21T15:01:55.594Z,100235.12
2023-03-21T15:04:23.703Z,100230.66
2023-03-21T15:06:54.089Z,100233.69
2023-03-21T15:09:27.098Z,100230.66
2023-03-21T15:11:56.450Z,100230.97
2023-03-21T15:14:30.164Z,100229.47
2023-03-21T15:16:59.963Z,100231.69
2023-03-21T15:19:32.455Z,100225.09
2023-03-21T15:22:07.244Z,100223.59
2023-03-21T15:24:39.536Z,100217.50
2023-03-21T15:27:09.356Z,100214.47
2023-03-21T15:29:39.603Z,100207.75
2023-03-21T15:32:23.876Z,100208.03
2023-03-21T15:34:56.626Z,100203.69
2023-03-21T15:37:37.117Z,100201.72
2023-03-21T15:40:19.407Z,100200.38
2023-03-21T15:42:52.621Z,100196.50
2023-03-21T15:45:25.698Z,100204.59
2023-03-21T15:47:59.890Z,100202.25
2023-03-21T15:50:38.606Z,100202.75
2023-03-21T15:53:13.184Z,100193.97
2023-03-21T15:55:48.144Z,100199.38
2023-03-21T15:58:19.186Z,100195.53
2023-03-21T16:00:55.444Z,100199.72
2023-03-21T16:03:27.252Z,100196.34
2023-03-21T16:06:19.247Z,100195.34
2023-03-21T16:08:50.134Z,100199.53
2023-03-21T16:11:28.372Z,100203.44
2023-03-21T16:13:57.824Z,100199.19
2023-03-21T16:16:30.367Z,100192.44
2023-03-21T16:19:00.876Z,100186.88
2023-03-21T16:21:31.810Z,100189.25
2023-03-21T16:24:00.778Z,100190.75
2023-03-21T16:26:31.679Z,100193.94
2023-03-21T16:29:01.469Z,100190.91
2023-03-21T16:31:33.275Z,100191.88
2023-03-21T16:34:04.004Z,100194.91
2023-03-21T16:36:36.575Z,100198.25
2023-03-21T16:39:16.848Z,100193.72
2023-03-21T16:41:47.784Z,100194.50
2023-03-21T16:44:19.286Z,100188.25
2023-03-21T16:46:52.858Z,100197.13
2023-03-21T16:49:24.878Z,100201.09
2023-03-21T16:52:05.367Z,100192.97
2023-03-21T16:54:39.227Z,100203.37
2023-03-21T16:57:09.825Z,100200.63
2023-03-21T16:59:48.733Z,100201.41
2023-03-21T17:02:24.766Z,100204.56
2023-03-21T17:04:56.745Z,100200.03
2023-03-21T17:07:29.926Z,100214.38
2023-03-21T17:10:03.810Z,100219.25
2023-03-21T17:12:32.756Z,100218.47
2023-03-21T17:15:02.832Z,100223.78
2023-03-21T17:17:34.373Z,100229.94
2023-03-21T17:20:17.938Z,100237.59
2023-03-21T17:22:46.906Z,100232.19
2023-03-21T17:25:21.925Z,100234.56
2023-03-21T17:27:53.093Z,100228.81
2023-03-21T17:30:24.974Z,100243.87
2023-03-21T17:32:55.812Z,100242.06
2023-03-21T17:35:25.160Z,100235.72
2023-03-21T17:37:54.144Z,100244.19
2023-03-21T17:40:27.183Z,100245.75
2023-03-21T17:42:57.005Z,100243.56
2023-03-21T17:48:58.153Z,100254.00
2023-03-21T17:51:34.631Z,100248.34
2023-03-21T17:54:06.066Z,100250.19
2023-03-21T18:00:46.484Z,100248.78
2023-03-21T18:03:16.309Z,100256.00
2023-03-21T18:05:49.961Z,100253.59
2023-03-21T18:08:31.919Z,100264.19
2023-03-21T18:11:00.479Z,100266.28
2023-03-21T18:13:41.924Z,100260.91
2023-03-21T18:17:10.514Z,100263.19
2023-03-21T18:19:40.822Z,100270.38
2023-03-21T18:22:09.087Z,100273.34
2023-03-21T18:24:38.416Z,100271.09
2023-03-21T18:27:07.264Z,100268.97
2023-03-21T18:32:27.566Z,100272.72
2023-03-21T18:34:56.843Z,100273.00
2023-03-21T18:37:25.479Z,100268.78
2023-03-21T18:40:07.803Z,100278.22
2023-03-21T18:42:37.019Z,100272.38
2023-03-21T18:45:07.696Z,100276.62
2023-03-21T18:47:40.902Z,100278.75
2023-03-21T18:50:14.990Z,100265.31
2023-03-21T18:52:46.521Z,100275.75
2023-03-21T18:55:30.740Z,100269.69
2023-03-21T18:58:09.083Z,100270.41
2023-03-21T19:00:41.061Z,100275.91
2023-03-21T19:03:21.601Z,100281.88
2023-03-21T19:06:07.087Z,100273.09
2023-03-21T19:08:59.388Z,100275.53
2023-03-21T19:11:32.070Z,100274.03
2023-03-21T19:14:00.240Z,100274.66
2023-03-21T19:16:32.660Z,100269.81
2023-03-21T19:19:08.909Z,100271.34
2023-03-21T19:21:37.945Z,100264.47
2023-03-21T19:24:26.890Z,100269.66
2023-03-21T19:27:20.182Z,100270.81
2023-03-21T19:30:06.578Z,100261.22
2023-03-21T19:32:40.711Z,100259.00
2023-03-21T19:35:10.723Z,100262.22
2023-03-21T19:37:38.954Z,100261.72
2023-03-21T19:40:10.190Z,100260.72
2023-03-21T19:42:42.491Z,100255.19
2023-03-21T19:45:15.165Z,100256.81
2023-03-21T19:47:50.851Z,100257.91
2023-03-21T19:53:14.708Z,100271.03
2023-03-21T19:56:20.743Z,100267.78
2023-03-21T19:59:12.458Z,100266.31
2023-03-21T20:02:25.028Z,100266.78
2023-03-21T20:05:14.528Z,100268.75
2023-03-21T20:08:09.567Z,100265.34
2023-03-21T20:10:50.315Z,100270.59
2023-03-21T20:13:18.827Z,100268.00
2023-03-21T20:15:55.396Z,100266.19
2023-03-21T20:18:38.263Z,100266.09
2023-03-21T20:21:16.973Z,100265.34
2023-03-21T20:24:05.188Z,100265.88
2023-03-21T20:26:34.226Z,100266.47
2023-03-21T20:37:17.500Z,100263.66
2023-03-21T20:39:50.168Z,100267.31
2023-03-21T20:45:47.637Z,100270.13
2023-03-21T20:48:37.538Z,100261.13
2023-03-21T20:54:34.892Z,100254.94
2023-03-21T20:57:04.738Z,100259.28
2023-03-21T20:59:33.603Z,100251.97
2023-03-21T21:02:01.873Z,100252.72
2023-03-21T21:04:52.816Z,100248.47
2023-03-21T21:07:31.047Z,100249.00
2023-03-21T21:14:39.532Z,100246.75
2023-03-21T21:17:24.544Z,100251.19
2023-03-21T21:19:56.477Z,100245.72
2023-03-21T21:22:24.940Z,100242.19
2023-03-21T21:25:03.888Z,100253.75
2023-03-21T21:27:32.370Z,100240.37
2023-03-21T21:30:18.776Z,100239.53
2023-03-21T21:32:47.307Z,100236.63
2023-03-21T21:35:48.632Z,100234.88
2023-03-21T21:38:22.121Z,100233.19
2023-03-21T21:40:52.159Z,100240.91
2023-03-21T21:43:21.252Z,100223.56
2023-03-21T21:49:14.134Z,100225.50
2023-03-21T21:51:42.586Z,100227.91
2023-03-21T21:54:18.064Z,100229.16
2023-03-21T22:07:54.839Z,100218.75
2023-03-21T22:10:25.446Z,100217.41
2023-03-21T22:12:53.501Z,100217.28
2023-03-21T22:15:23.841Z,100211.66
2023-03-21T22:17:52.801Z,100209.13
2023-03-21T22:20:22.377Z,100220.66
2023-03-21T22:22:52.199Z,100220.81
2023-03-21T22:25:20.567Z,100227.13
2023-03-21T22:27:48.567Z,100218.41
2023-03-21T22:30:18.648Z,100216.84
2023-03-21T22:33:02.597Z,100227.41
2023-03-21T22:35:34.553Z,100232.34
2023-03-21T22:38:04.283Z,100226.28
2023-03-21T22:40:32.467Z,100234.44
2023-03-21T22:43:00.709Z,100233.31
2023-03-21T22:45:29.222Z,100227.97
2023-03-21T22:47:59.846Z,100234.78
2023-03-21T22:50:29.064Z,100240.84
2023-03-21T22:52:57.140Z,100237.19
2023-03-21T22:55:26.527Z,100233.66
2023-03-21T22:57:54.945Z,100241.13
2023-03-21T23:00:22.964Z,100235.28
2023-03-21T23:02:51.049Z,100226.78
2023-03-21T23:05:19.659Z,100224.84
2023-03-21T23:07:47.717Z,100214.28
2023-03-21T23:10:16.105Z,100212.09
2023-03-21T23:12:46.147Z,100215.62
2023-03-21T23:15:14.307Z,100216.59
2023-03-21T23:17:44.230Z,100218.34
2023-03-21T23:20:12.937Z,100214.47
2023-03-21T23:22:41.545Z,100216.16
2023-03-21T23:25:09.913Z,100211.34
2023-03-21T23:27:38.436Z,100211.59
2023-03-21T23:30:09.298Z,100208.34
2023-03-21T23:32:38.212Z,100208.47
2023-03-21T23:35:07.437Z,100212.59
2023-03-21T23:37:36.112Z,100209.00
2023-03-21T23:40:07.300Z,100215.06
2023-03-21T23:42:36.206Z,100213.63
2023-03-21T23:45:05.175Z,100203.22
2023-03-21T23:47:34.567Z,100214.97
2023-03-21T23:50:06.878Z,100216.19
2023-03-21T23:52:35.549Z,100210.97
2023-03-21T23:55:03.754Z,100202.34
2023-03-21T23:57:31.906Z,100194.72
